Time;durP1;ratioP1;P1;durP2;ratioP2;P2;SDS_P1;SDS_P2;PMS_P1;PMS_P2;Temp;Humidity;BMP_temperature;BMP_pressure;BME280_temperature;BME280_humidity;BME280_pressure;Samples;Min_cycle;Max_cycle;Signal;HPM_P1;HPM_P2
2021/12/12 00:01:49;;;;;;;35.10;8.95;;;;;;;14.51;78.84;100194.53;5013708;28;20037;-76
2021/12/12 00:04:18;;;;;;;35.53;8.70;;;;;;;14.42;79.06;100196.34;5014107;28;20052;-77
2021/12/12 00:06:46;;;;;;;29.52;7.97;;;;;;;14.45;79.56;100196.03;5013685;28;20038;-76
2021/12/12 00:09:29;;;;;;;30.25;9.70;;;;;;;14.50;79.56;100198.22;5013611;28;20026;-76
2021/12/12 00:11:56;;;;;;;42.95;8.98;;;;;;;14.46;79.31;100203.09;5013710;28;20472;-76
2021/12/12 00:14:27;;;;;;;47.63;8.68;;;;;;;14.53;79.42;100203.31;5013245;28;20547;-77
2021/12/12 00:16:57;;;;;;;35.50;9.18;;;;;;;14.37;80.03;100193.25;5014705;28;20080;-77
2021/12/12 00:19:25;;;;;;;40.80;8.80;;;;;;;14.41;80.60;100200.03;4998079;28;20087;-77
2021/12/12 00:21:55;;;;;;;46.55;11.68;;;;;;;14.29;80.92;100200.44;5012509;28;20403;-77
2021/12/12 00:24:21;;;;;;;36.42;10.35;;;;;;;14.21;81.66;100200.41;5012399;28;20053;-76
2021/12/12 00:26:51;;;;;;;38.20;8.68;;;;;;;14.23;81.86;100207.34;5012623;28;20446;-77
2021/12/12 00:29:18;;;;;;;36.05;8.98;;;;;;;14.25;81.97;100196.38;5012254;28;20037;-77
2021/12/12 00:31:46;;;;;;;44.55;11.73;;;;;;;14.27;82.47;100210.56;5012648;28;20029;-77
2021/12/12 00:34:14;;;;;;;41.17;10.63;;;;;;;14.36;82.19;100196.13;5012528;28;20109;-77
2021/12/12 00:36:41;;;;;;;42.25;9.30;;;;;;;14.36;81.89;100191.56;5012390;28;20025;-77
2021/12/12 00:39:15;;;;;;;40.35;9.25;;;;;;;14.46;81.67;100191.47;5012422;28;20081;-75
2021/12/12 00:41:42;;;;;;;37.85;10.50;;;;;;;14.49;81.92;100178.47;5012933;28;20329;-77
2021/12/12 00:44:09;;;;;;;47.33;12.23;;;;;;;14.46;81.56;100194.16;5012703;28;20025;-77
2021/12/12 00:46:35;;;;;;;53.10;9.93;;;;;;;14.44;81.76;100196.16;5012755;28;20476;-77
2021/12/12 00:49:00;;;;;;;45.00;9.93;;;;;;;14.47;82.01;100185.88;5012641;28;20406;-77
2021/12/12 00:51:31;;;;;;;50.58;9.93;;;;;;;14.42;82.01;100190.06;5012910;28;20038;-77
2021/12/12 00:53:58;;;;;;;42.53;9.27;;;;;;;14.26;82.93;100184.53;5012366;28;20368;-76
2021/12/12 00:56:24;;;;;;;45.90;10.20;;;;;;;14.22;83.51;100177.75;5013063;28;20030;-77
2021/12/12 00:58:50;;;;;;;50.60;10.57;;;;;;;14.27;83.91;100175.41;5028204;28;20032;-77
2021/12/12 01:01:24;;;;;;;37.25;10.45;;;;;;;14.30;83.42;100175.09;5012997;28;20029;-76
2021/12/12 01:03:59;;;;;;;40.40;10.48;;;;;;;14.40;83.41;100175.88;5013361;28;20045;-77
2021/12/12 01:06:26;;;;;;;39.75;11.45;;;;;;;14.35;83.20;100157.41;5013436;28;20501;-77
2021/12/12 01:08:57;;;;;;;32.88;9.75;;;;;;;14.36;83.27;100163.66;5014048;28;20037;-76
2021/12/12 01:11:37;;;;;;;46.90;9.90;;;;;;;14.21;83.81;100165.22;5020045;28;20033;-75
2021/12/12 01:14:07;;;;;;;45.20;10.05;;;;;;;13.95;85.40;100176.88;5015075;28;20022;-75
2021/12/12 01:16:46;;;;;;;38.00;10.30;;;;;;;13.98;85.98;100190.06;4971354;28;1188448;-76
2021/12/12 01:19:18;;;;;;;49.13;11.40;;;;;;;13.92;86.90;100181.75;5015550;28;20037;-76
2021/12/12 01:21:49;;;;;;;46.58;10.85;;;;;;;13.97;87.45;100180.28;5016667;28;20377;-76
2021/12/12 01:24:24;;;;;;;65.82;12.50;;;;;;;13.91;87.64;100175.47;5016458;28;20034;-76
2021/12/12 01:26:50;;;;;;;60.10;13.73;;;;;;;13.82;86.74;100176.41;5016545;28;20018;-76
2021/12/12 01:29:16;;;;;;;48.42;10.13;;;;;;;13.87;86.06;100171.41;5016433;28;20029;-76
2021/12/12 01:31:47;;;;;;;52.92;10.85;;;;;;;13.88;86.30;100172.28;5016294;28;20026;-76
2021/12/12 01:34:18;;;;;;;51.40;10.68;;;;;;;13.88;86.99;100185.78;5016410;28;20022;-76
2021/12/12 01:39:44;;;;;;;65.60;12.02;;;;;;;13.70;88.96;100171.44;5016711;28;20040;-77
2021/12/12 01:42:31;;;;;;;49.25;11.77;;;;;;;13.66;89.65;100175.44;5016532;28;20100;-77
2021/12/12 01:45:14;;;;;;;54.28;10.65;;;;;;;13.66;90.24;100176.31;5016183;28;20026;-78
2021/12/12 01:47:53;;;;;;;57.78;11.98;;;;;;;13.55;90.58;100163.88;5016301;28;20022;-76
2021/12/12 01:50:28;;;;;;;59.78;13.40;;;;;;;13.48;90.81;100162.81;5015807;28;20028;-76
2021/12/12 01:52:55;;;;;;;54.92;12.27;;;;;;;13.45;91.57;100173.06;5015785;28;20128;-76
2021/12/12 01:55:33;;;;;;;47.53;11.07;;;;;;;13.40;92.21;100164.56;5015444;28;20479;-76
2021/12/12 01:58:02;;;;;;;42.58;11.63;;;;;;;13.39;92.80;100166.41;5016086;28;20415;-76
2021/12/12 02:00:28;;;;;;;46.80;12.68;;;;;;;13.41;92.83;100167.13;5015909;28;20022;-76
2021/12/12 02:02:55;;;;;;;49.53;12.38;;;;;;;13.44;93.23;100171.38;5016279;28;20388;-76
2021/12/12 02:05:21;;;;;;;42.22;12.13;;;;;;;13.52;93.35;100177.69;5015740;28;20053;-76
2021/12/12 02:07:54;;;;;;;53.92;11.38;;;;;;;13.48;93.26;100186.28;5016043;28;20092;-76
2021/12/12 02:10:24;;;;;;;57.45;12.63;;;;;;;13.44;93.33;100174.91;5015525;28;20030;-76
2021/12/12 02:12:51;;;;;;;59.25;13.10;;;;;;;13.36;93.87;100168.59;5015736;28;20484;-76
2021/12/12 02:15:17;;;;;;;90.95;17.92;;;;;;;13.28;94.23;100177.44;5015643;28;20050;-76
2021/12/12 02:17:47;;;;;;;54.75;12.77;;;;;;;13.24;94.76;100170.63;5016100;28;20081;-77
2021/12/12 02:20:40;;;;;;;61.85;12.50;;;;;;;13.19;95.38;100169.41;5015797;28;20026;-76
2021/12/12 02:23:20;;;;;;;54.85;13.95;;;;;;;13.17;95.65;100179.53;5015788;28;20038;-76
2021/12/12 02:36:54;;;;;;;61.00;14.65;;;;;;;13.26;96.74;100168.66;5015432;28;20041;-76
2021/12/12 02:39:20;;;;;;;61.83;14.55;;;;;;;13.32;96.71;100162.66;5015079;28;20034;-76
2021/12/12 02:41:50;;;;;;;62.05;15.38;;;;;;;13.30;96.78;100158.41;5018936;28;20100;-76
2021/12/12 02:44:17;;;;;;;76.72;14.77;;;;;;;13.35;96.80;100150.69;5015421;28;20458;-76
2021/12/12 02:46:45;;;;;;;61.90;14.23;;;;;;;13.35;96.76;100161.47;5014785;28;20021;-76
2021/12/12 02:49:36;;;;;;;49.03;14.25;;;;;;;13.33;96.72;100160.78;5020303;28;20008;-76
2021/12/12 02:52:04;;;;;;;53.13;12.50;;;;;;;13.29;96.84;100149.44;5011262;28;20030;-76
2021/12/12 02:54:29;;;;;;;50.45;14.85;;;;;;;13.27;96.91;100146.03;5014879;28;20034;-76
2021/12/12 02:56:55;;;;;;;49.08;14.57;;;;;;;13.33;97.01;100137.31;5014563;28;20083;-76
2021/12/12 02:59:23;;;;;;;39.78;11.93;;;;;;;13.37;97.01;100129.75;5014574;28;20029;-76
2021/12/12 03:02:00;;;;;;;48.58;14.07;;;;;;;13.46;97.07;100120.72;5014645;28;20026;-76
2021/12/12 03:04:28;;;;;;;43.90;12.43;;;;;;;13.41;96.71;100112.25;5014837;28;20018;-76
2021/12/12 03:06:55;;;;;;;43.28;13.15;;;;;;;13.44;96.50;100118.19;5014754;28;20472;-76
2021/12/12 03:09:28;;;;;;;50.05;14.02;;;;;;;13.56;96.48;100105.28;5014684;28;20488;-76
2021/12/12 03:12:04;;;;;;;48.47;13.00;;;;;;;13.56;96.03;100129.59;5014408;28;20026;-76
2021/12/12 03:14:32;;;;;;;49.78;12.32;;;;;;;13.51;95.33;100123.81;5013816;28;20026;-76
2021/12/12 03:17:01;;;;;;;48.88;13.80;;;;;;;13.50;95.18;100114.88;5014190;28;20050;-76
2021/12/12 03:19:27;;;;;;;49.65;13.40;;;;;;;13.51;95.05;100102.22;5014333;28;20069;-77
2021/12/12 03:21:54;;;;;;;56.42;14.63;;;;;;;13.52;95.14;100109.28;5014157;28;20030;-76
2021/12/12 03:24:24;;;;;;;67.47;15.23;;;;;;;13.47;95.17;100109.78;5013910;28;20038;-76
2021/12/12 03:26:52;;;;;;;66.45;14.25;;;;;;;13.52;95.07;100093.06;5014100;28;20080;-76
2021/12/12 03:29:18;;;;;;;44.85;12.85;;;;;;;13.46;94.89;100091.84;5013780;28;20034;-76
2021/12/12 03:31:48;;;;;;;59.10;13.80;;;;;;;13.41;94.73;100080.69;5013908;28;20083;-76
2021/12/12 03:34:18;;;;;;;49.05;12.88;;;;;;;13.42;94.63;100097.75;5013916;28;20103;-75
2021/12/12 03:36:45;;;;;;;49.63;14.20;;;;;;;13.44;94.82;100101.13;5013785;28;20034;-76
2021/12/12 03:39:21;;;;;;;45.70;13.57;;;;;;;13.45;94.76;100102.84;5013516;28;20033;-76
2021/12/12 03:41:58;;;;;;;47.58;15.02;;;;;;;13.47;94.83;100117.03;5013620;28;20080;-76
2021/12/12 03:44:27;;;;;;;50.08;13.70;;;;;;;13.54;94.77;100128.91;5013772;28;20037;-76
2021/12/12 03:46:58;;;;;;;54.75;15.93;;;;;;;13.58;94.89;100132.97;5014047;28;20091;-76
2021/12/12 03:49:23;;;;;;;47.42;12.07;;;;;;;13.52;93.75;100133.59;5013768;28;20021;-76
2021/12/12 03:51:50;;;;;;;37.88;12.40;;;;;;;13.53;93.33;100154.22;5013719;28;20033;-76
2021/12/12 03:54:17;;;;;;;45.85;11.90;;;;;;;13.54;91.20;100139.72;5013398;28;20036;-76
2021/12/12 03:56:44;;;;;;;39.45;12.20;;;;;;;13.58;90.67;100128.44;5013772;28;20567;-76
2021/12/12 03:59:11;;;;;;;38.55;10.18;;;;;;;13.61;89.67;100141.63;5013423;28;20029;-76
2021/12/12 04:01:41;;;;;;;41.88;11.40;;;;;;;13.65;88.38;100144.88;4995787;28;20069;-77
2021/12/12 04:04:15;;;;;;;41.47;10.50;;;;;;;13.76;86.93;100139.22;5013223;28;20022;-76
2021/12/12 04:06:41;;;;;;;31.60;10.32;;;;;;;13.78;85.98;100139.91;5013417;28;20025;-75
2021/12/12 04:09:09;;;;;;;34.20;10.07;;;;;;;13.78;86.62;100139.91;5016437;28;20036;-75
2021/12/12 04:11:40;;;;;;;30.50;9.75;;;;;;;13.80;86.67;100146.00;5014920;28;20029;-77
2021/12/12 04:14:07;;;;;;;33.13;10.80;;;;;;;13.80;86.29;100158.66;5012942;28;20034;-76
2021/12/12 04:16:35;;;;;;;30.40;9.27;;;;;;;13.84;86.06;100169.03;5013217;28;20076;-75
2021/12/12 04:19:02;;;;;;;39.22;10.13;;;;;;;13.83;85.87;100178.13;5013011;28;20492;-76
2021/12/12 04:21:29;;;;;;;39.38;9.55;;;;;;;13.85;85.65;100173.41;5013427;28;20037;-76
2021/12/12 04:23:56;;;;;;;45.38;9.77;;;;;;;13.94;85.36;100191.38;5013063;28;20579;-77
2021/12/12 04:26:25;;;;;;;33.13;10.02;;;;;;;13.98;85.39;100202.75;5013189;28;20025;-76
2021/12/12 04:29:28;;;;;;;43.00;10.00;;;;;;;14.03;85.78;100206.69;5029723;28;20025;-76
2021/12/12 04:31:59;;;;;;;38.55;11.52;;;;;;;14.00;85.77;100201.59;5012796;28;20044;-76
2021/12/12 04:34:29;;;;;;;31.65;10.95;;;;;;;13.99;86.25;100205.31;5013236;28;20037;-76
2021/12/12 04:36:56;;;;;;;43.63;11.35;;;;;;;13.99;86.34;100199.91;5013070;28;20101;-76
2021/12/12 04:39:30;;;;;;;33.15;10.73;;;;;;;13.99;86.67;100199.03;5012839;28;20391;-76
2021/12/12 04:42:37;;;;;;;36.58;10.93;;;;;;;14.03;86.91;100209.41;5013278;28;20026;-76
2021/12/12 04:45:14;;;;;;;30.95;11.43;;;;;;;14.03;87.14;100220.22;5012654;28;20034;-76
2021/12/12 04:51:25;;;;;;;24.08;10.43;;;;;;;14.07;87.33;100237.81;5002704;28;20076;-76
2021/12/12 04:54:16;;;;;;;42.45;12.82;;;;;;;14.07;87.70;100245.91;5014621;28;20030;-76
2021/12/12 04:56:55;;;;;;;30.08;10.02;;;;;;;14.08;87.84;100269.25;5032188;28;20065;-76
2021/12/12 04:59:29;;;;;;;31.45;11.23;;;;;;;14.12;88.32;100275.22;5017161;28;20548;-76
2021/12/12 05:02:04;;;;;;;39.45;11.85;;;;;;;14.14;88.57;100279.44;5016739;28;20033;-76
2021/12/12 05:04:37;;;;;;;40.28;11.75;;;;;;;14.13;88.60;100293.97;5017131;28;20025;-76
2021/12/12 05:07:36;;;;;;;30.13;10.65;;;;;;;14.17;89.16;100284.56;5016487;28;20100;-76
2021/12/12 05:10:13;;;;;;;22.92;8.38;;;;;;;14.18;89.45;100271.88;5016310;28;20032;-75
2021/12/12 05:12:46;;;;;;;24.90;9.75;;;;;;;14.16;89.44;100277.44;5016378;28;20053;-75
2021/12/12 05:15:20;;;;;;;23.70;8.23;;;;;;;14.11;88.88;100263.53;5016143;28;20033;-76
2021/12/12 05:17:55;;;;;;;18.17;7.28;;;;;;;14.09;88.66;100270.97;5015909;28;20076;-75
2021/12/12 05:20:31;;;;;;;20.90;7.30;;;;;;;14.03;88.49;100273.44;5016375;28;20116;-75
2021/12/12 05:23:03;;;;;;;21.13;7.82;;;;;;;14.07;88.72;100262.16;5016766;28;20034;-77
2021/12/12 05:25:57;;;;;;;17.42;7.63;;;;;;;14.06;89.08;100265.88;5016380;28;20105;-76
2021/12/12 05:28:37;;;;;;;27.10;8.27;;;;;;;14.13;89.23;100283.16;5015097;28;20042;-76
2021/12/12 05:31:06;;;;;;;19.92;8.40;;;;;;;14.13;88.77;100285.84;5016153;28;20096;-77
2021/12/12 05:33:32;;;;;;;14.05;6.55;;;;;;;14.09;88.17;100291.75;5015738;28;20053;-77
2021/12/12 05:35:59;;;;;;;18.70;6.10;;;;;;;13.93;87.63;100289.75;5016809;28;20061;-76
2021/12/12 05:38:26;;;;;;;19.80;5.80;;;;;;;13.87;87.26;100292.22;5024607;28;20033;-76
2021/12/12 05:40:52;;;;;;;16.10;5.60;;;;;;;13.84;87.17;100287.97;5019819;28;20034;-76
2021/12/12 05:43:19;;;;;;;18.52;6.90;;;;;;;13.77;87.64;100297.69;5016239;28;20475;-76
2021/12/12 05:45:46;;;;;;;10.48;5.45;;;;;;;13.78;87.75;100288.59;5016145;28;20029;-76
2021/12/12 05:48:13;;;;;;;17.90;7.45;;;;;;;13.81;87.88;100298.22;5015453;28;20026;-77
2021/12/12 05:50:40;;;;;;;16.73;6.38;;;;;;;13.81;87.62;100299.09;5015348;28;20030;-77
2021/12/12 05:53:08;;;;;;;13.15;4.90;;;;;;;13.71;87.36;100303.69;5015471;28;20026;-77
2021/12/12 05:55:37;;;;;;;8.48;3.65;;;;;;;13.61;86.28;100308.31;5015515;28;20395;-76
2021/12/12 05:58:05;;;;;;;14.13;4.40;;;;;;;13.64;86.21;100310.72;5015354;28;20030;-76
2021/12/12 06:00:39;;;;;;;20.02;5.07;;;;;;;13.63;86.36;100304.47;4997889;28;20033;-76
2021/12/12 06:03:11;;;;;;;15.45;4.57;;;;;;;13.63;86.48;100317.13;5016136;28;20029;-76
2021/12/12 06:05:38;;;;;;;12.05;4.18;;;;;;;13.59;86.48;100310.31;5017361;28;20017;-76
2021/12/12 06:08:05;;;;;;;24.35;4.95;;;;;;;13.56;86.19;100316.03;5037063;28;20041;-76
2021/12/12 06:10:34;;;;;;;12.07;5.00;;;;;;;13.62;86.42;100315.41;5015450;28;20492;-76
2021/12/12 06:13:01;;;;;;;7.65;3.55;;;;;;;13.68;87.06;100327.47;5015119;28;20025;-76
2021/12/12 06:15:30;;;;;;;9.48;3.28;;;;;;;13.52;86.40;100330.84;5015893;28;20022;-76
2021/12/12 06:17:57;;;;;;;5.07;2.25;;;;;;;13.40;85.78;100359.06;5015358;28;20070;-76
2021/12/12 06:20:23;;;;;;;5.90;2.90;;;;;;;13.38;85.57;100366.47;5015568;28;20058;-76
2021/12/12 06:22:49;;;;;;;10.73;3.08;;;;;;;13.40;85.05;100353.66;5015088;28;20065;-76
2021/12/12 06:25:16;;;;;;;10.85;2.55;;;;;;;13.48;85.08;100367.28;5015185;28;20022;-76
2021/12/12 06:27:42;;;;;;;3.92;2.53;;;;;;;13.47;85.75;100363.72;5015222;28;20029;-76
2021/12/12 06:30:15;;;;;;;5.63;3.08;;;;;;;13.54;86.17;100366.69;5015240;28;20041;-76
2021/12/12 06:32:43;;;;;;;6.50;2.08;;;;;;;13.53;85.97;100367.66;5015277;28;20460;-75
2021/12/12 06:35:10;;;;;;;11.38;2.55;;;;;;;13.49;85.51;100367.13;5014601;28;20460;-76
2021/12/12 06:37:35;;;;;;;11.82;2.63;;;;;;;13.49;84.91;100356.31;5014571;28;20030;-76
2021/12/12 06:40:04;;;;;;;16.83;4.03;;;;;;;13.51;84.36;100346.22;5015038;28;20030;-74
2021/12/12 06:42:30;;;;;;;11.18;4.30;;;;;;;13.55;84.79;100333.22;5014918;28;20034;-75
2021/12/12 06:44:56;;;;;;;7.15;3.17;;;;;;;13.53;85.13;100328.00;5015373;28;20400;-75
2021/12/12 06:47:22;;;;;;;11.95;3.78;;;;;;;13.58;85.63;100325.69;5014710;28;20092;-76
2021/12/12 06:49:48;;;;;;;14.65;6.75;;;;;;;13.61;85.81;100319.97;5014882;28;20407;-76
2021/12/12 06:52:16;;;;;;;14.48;7.50;;;;;;;13.63;86.08;100320.69;5014945;28;20040;-76
2021/12/12 06:54:42;;;;;;;13.00;4.22;;;;;;;13.65;86.16;100336.75;5014790;28;20096;-77
2021/12/12 06:57:12;;;;;;;11.95;4.95;;;;;;;13.69;86.23;100326.47;5014796;28;20038;-77
2021/12/12 06:59:39;;;;;;;11.35;5.47;;;;;;;13.75;86.26;100320.47;5014442;28;20072;-75
2021/12/12 07:02:06;;;;;;;12.98;5.25;;;;;;;13.77;86.38;100313.03;5014581;28;20057;-77
2021/12/12 07:04:34;;;;;;;10.73;4.88;;;;;;;13.74;86.42;100324.16;5014181;28;20022;-77
2021/12/12 07:07:03;;;;;;;15.23;5.15;;;;;;;13.76;86.31;100330.28;5015392;28;20049;-75
2021/12/12 07:09:33;;;;;;;21.35;4.53;;;;;;;13.56;86.21;100321.44;5017231;28;20026;-75
2021/12/12 07:12:02;;;;;;;15.07;4.20;;;;;;;13.54;86.17;100331.56;5013780;28;20415;-75
2021/12/12 07:14:28;;;;;;;16.98;4.28;;;;;;;13.56;86.04;100332.25;5029193;28;20037;-76
2021/12/12 07:16:55;;;;;;;21.55;4.63;;;;;;;13.65;86.24;100339.44;5013048;28;20399;-76
2021/12/12 07:19:22;;;;;;;18.25;4.10;;;;;;;13.64;86.79;100348.53;5013946;28;20057;-77
2021/12/12 07:21:49;;;;;;;17.50;3.75;;;;;;;13.73;86.95;100355.75;5029062;28;20034;-75
2021/12/12 07:24:16;;;;;;;12.05;4.05;;;;;;;13.60;87.15;100374.19;5015372;28;20014;-75
2021/12/12 07:26:42;;;;;;;14.43;4.50;;;;;;;13.63;87.15;100385.56;5013395;28;20022;-76
2021/12/12 07:29:08;;;;;;;16.77;3.97;;;;;;;13.62;87.21;100375.72;5013512;28;20044;-76
2021/12/12 07:31:37;;;;;;;16.38;5.18;;;;;;;13.73;87.56;100358.44;5013668;28;20108;-76
2021/12/12 07:34:07;;;;;;;16.92;6.75;;;;;;;13.72;87.73;100359.47;5013575;28;20026;-76
2021/12/12 07:36:35;;;;;;;19.02;4.55;;;;;;;13.79;87.93;100363.25;5013241;28;20168;-76
2021/12/12 07:39:05;;;;;;;20.27;5.15;;;;;;;13.85;88.50;100375.31;5013515;28;20026;-77
2021/12/12 07:41:32;;;;;;;16.60;5.43;;;;;;;13.86;88.79;100377.00;5013539;28;20026;-78
2021/12/12 07:43:59;;;;;;;20.40;7.28;;;;;;;13.87;89.37;100390.38;5016530;28;20028;-76
2021/12/12 07:46:27;;;;;;;13.57;4.78;;;;;;;13.92;89.46;100400.72;5033132;28;20065;-76
2021/12/12 07:48:54;;;;;;;12.20;4.60;;;;;;;13.93;89.66;100403.28;5013634;28;20034;-76
2021/12/12 07:51:23;;;;;;;10.43;4.18;;;;;;;13.98;89.96;100410.94;5013494;28;20053;-76
2021/12/12 07:53:53;;;;;;;13.73;5.07;;;;;;;13.95;90.04;100413.94;5013235;28;20042;-76
2021/12/12 07:56:23;;;;;;;21.67;6.68;;;;;;;13.99;89.77;100426.16;5028368;28;20491;-77
2021/12/12 07:58:50;;;;;;;23.67;8.15;;;;;;;14.01;89.80;100419.59;5013036;28;20029;-76
2021/12/12 08:01:16;;;;;;;23.17;6.28;;;;;;;14.04;89.90;100419.28;5012911;28;20022;-77
2021/12/12 08:03:43;;;;;;;16.25;6.47;;;;;;;14.06;89.80;100414.59;5013415;28;20087;-76
2021/12/12 08:06:11;;;;;;;20.10;4.90;;;;;;;14.09;90.04;100411.59;5013005;28;20022;-77
2021/12/12 08:08:38;;;;;;;44.15;12.07;;;;;;;14.12;90.06;100399.63;5014438;28;20512;-76
2021/12/12 08:11:05;;;;;;;30.48;6.63;;;;;;;14.00;89.77;100404.41;5013559;28;20029;-75
2021/12/12 08:13:35;;;;;;;21.13;4.30;;;;;;;13.99;89.41;100404.53;5013655;28;20037;-76
2021/12/12 08:16:05;;;;;;;20.15;4.53;;;;;;;14.01;89.08;100414.19;5027924;28;20384;-76
2021/12/12 08:18:32;;;;;;;22.15;5.22;;;;;;;13.97;89.34;100406.56;5012849;28;20057;-76
2021/12/12 08:21:00;;;;;;;15.27;5.00;;;;;;;13.94;89.30;100404.97;5013498;28;21851;-76
2021/12/12 08:23:26;;;;;;;22.80;6.32;;;;;;;13.94;89.17;100401.44;5012948;28;20029;-76
2021/12/12 08:25:54;;;;;;;26.40;6.85;;;;;;;14.02;89.31;100407.78;5028405;28;20180;-76
2021/12/12 08:28:20;;;;;;;24.45;7.47;;;;;;;14.05;89.57;100410.19;5013081;28;20025;-76
2021/12/12 08:30:48;;;;;;;25.20;7.30;;;;;;;13.95;89.58;100401.28;5012715;28;20034;-76
2021/12/12 08:33:13;;;;;;;32.97;9.00;;;;;;;13.94;89.78;100396.03;5012604;28;20128;-76
2021/12/12 08:35:41;;;;;;;29.20;7.05;;;;;;;14.03;89.84;100395.97;5013962;28;20456;-76
2021/12/12 08:38:10;;;;;;;28.88;6.85;;;;;;;14.08;89.90;100399.06;5016471;28;20026;-76
2021/12/12 08:40:45;;;;;;;27.55;6.13;;;;;;;14.00;90.07;100417.91;5012695;28;20399;-75
2021/12/12 08:43:13;;;;;;;30.83;6.00;;;;;;;13.96;90.01;100413.81;5012733;28;20022;-76
2021/12/12 08:45:44;;;;;;;39.30;7.22;;;;;;;13.96;90.22;100419.22;5012362;28;20053;-76
2021/12/12 08:48:11;;;;;;;41.90;7.50;;;;;;;13.91;90.35;100424.19;5012474;28;20042;-77
2021/12/12 08:54:12;;;;;;;30.73;6.75;;;;;;;13.86;91.65;100415.72;5012355;28;20080;-76
2021/12/12 08:56:44;;;;;;;28.25;7.68;;;;;;;13.76;92.20;100404.09;5012435;28;20034;-77
2021/12/12 08:59:21;;;;;;;34.97;6.68;;;;;;;13.75;92.80;100406.97;5012302;28;20029;-76
2021/12/12 09:01:51;;;;;;;27.33;7.13;;;;;;;13.68;93.11;100409.41;5012575;28;20107;-76
2021/12/12 09:04:18;;;;;;;29.85;7.43;;;;;;;13.57;93.31;100399.66;5012631;28;20033;-76
2021/12/12 09:06:54;;;;;;;29.25;6.68;;;;;;;13.45;93.50;100395.44;5012499;28;20022;-76
2021/12/12 09:09:25;;;;;;;25.23;4.65;;;;;;;13.35;93.36;100397.31;5012435;28;20033;-76
2021/12/12 09:12:18;;;;;;;31.30;5.28;;;;;;;13.32;93.49;100394.94;5012509;28;20112;-75
2021/12/12 09:14:52;;;;;;;26.37;5.40;;;;;;;13.40;93.50;100396.88;5012591;28;20026;-77
2021/12/12 09:17:50;;;;;;;22.73;3.55;;;;;;;13.32;93.76;100384.13;5012350;28;20608;-76
2021/12/12 09:20:21;;;;;;;26.23;5.03;;;;;;;13.22;93.48;100380.59;5011277;28;20045;-76
2021/12/12 09:23:00;;;;;;;28.93;5.93;;;;;;;13.20;93.03;100379.91;5024551;28;20045;-76
2021/12/12 09:25:37;;;;;;;15.95;3.90;;;;;;;13.16;92.99;100361.44;5022504;28;20041;-77
2021/12/12 09:28:26;;;;;;;29.80;4.15;;;;;;;13.20;93.11;100360.16;5012948;28;20061;-77
2021/12/12 09:30:54;;;;;;;14.15;4.65;;;;;;;13.19;93.74;100355.72;5011984;28;20055;-76
2021/12/12 09:33:30;;;;;;;16.65;3.28;;;;;;;13.18;94.46;100343.25;5012121;28;20037;-76
2021/12/12 09:36:02;;;;;;;29.60;5.28;;;;;;;13.21;94.21;100351.88;5012216;28;20032;-77
2021/12/12 09:38:49;;;;;;;;;;;;;;;13.18;94.35;100346.78;5012765;28;20069;-76
2021/12/12 09:41:14;;;;;;;24.10;6.53;;;;;;;13.15;94.93;100348.94;5020151;28;19909;-76
2021/12/12 09:43:59;;;;;;;22.48;5.97;;;;;;;13.13;95.36;100346.38;5016049;28;20032;-76
2021/12/12 09:47:13;;;;;;;26.13;5.80;;;;;;;13.04;96.14;100342.69;5015823;28;20036;-75
2021/12/12 09:53:07;;;;;;;33.85;5.40;;;;;;;13.07;97.69;100345.09;5015737;28;20052;-75
2021/12/12 09:56:00;;;;;;;36.70;5.63;;;;;;;13.04;98.80;100348.09;5015660;28;20057;-77
2021/12/12 09:59:09;;;;;;;31.67;6.53;;;;;;;13.06;99.95;100359.59;5015415;28;20480;-75
2021/12/12 10:01:50;;;;;;;32.85;5.88;;;;;;;13.01;100.00;100359.19;5015170;28;20069;-75
2021/12/12 10:04:38;;;;;;;44.17;6.55;;;;;;;12.99;100.00;100371.13;5015489;28;20476;-76
2021/12/12 10:07:10;;;;;;;24.65;5.53;;;;;;;12.96;100.00;100376.81;5017182;28;20057;-76
2021/12/12 10:09:38;;;;;;;;;;;;;;;12.90;100.00;100374.72;5016072;28;20491;-76
2021/12/12 10:12:16;;;;;;;36.53;6.25;;;;;;;12.77;100.00;100372.31;5015484;28;19909;-76
2021/12/12 10:14:51;;;;;;;46.72;7.03;;;;;;;12.79;100.00;100375.72;5015530;28;20029;-76
2021/12/12 10:17:28;;;;;;;30.25;6.47;;;;;;;12.80;100.00;100374.72;5015650;28;20036;-75
2021/12/12 10:20:20;;;;;;;38.03;5.93;;;;;;;12.93;100.00;100382.50;5015308;28;20114;-75
2021/12/12 10:23:05;;;;;;;34.55;5.28;;;;;;;12.88;100.00;100380.22;5013357;28;20069;-76
2021/12/12 10:25:35;;;;;;;25.35;4.57;;;;;;;12.99;100.00;100388.19;5015897;28;20021;-75
2021/12/12 10:28:11;;;;;;;24.52;4.10;;;;;;;13.01;100.00;100402.38;5014930;28;20460;-75
2021/12/12 10:30:44;;;;;;;24.85;5.40;;;;;;;13.13;100.00;100396.81;5014847;28;20439;-76
2021/12/12 10:33:21;;;;;;;25.10;5.70;;;;;;;13.24;100.00;100393.97;5015259;28;20534;-76
2021/12/12 10:35:58;;;;;;;41.15;6.53;;;;;;;13.39;100.00;100392.50;5014609;28;20501;-76
2021/12/12 10:38:33;;;;;;;26.02;3.85;;;;;;;13.30;100.00;100390.69;5015044;28;20026;-76
2021/12/12 10:41:03;;;;;;;28.85;6.88;;;;;;;13.31;99.77;100392.34;5014999;28;20547;-76
2021/12/12 10:43:40;;;;;;;32.60;6.70;;;;;;;13.49;99.11;100395.97;5015154;28;20021;-76
2021/12/12 10:46:12;;;;;;;22.38;5.30;;;;;;;13.55;98.87;100395.38;5015265;28;20033;-76
2021/12/12 10:49:12;;;;;;;23.50;6.90;;;;;;;13.41;97.73;100382.38;5014750;28;20065;-76
2021/12/12 10:51:46;;;;;;;19.88;3.70;;;;;;;13.42;96.88;100384.09;5013386;28;20033;-76
2021/12/12 10:54:23;;;;;;;25.48;4.88;;;;;;;13.39;96.73;100381.69;5015225;28;20026;-75
2021/12/12 10:56:56;;;;;;;19.02;4.13;;;;;;;13.42;96.59;100389.50;5015135;28;20028;-76
2021/12/12 10:59:30;;;;;;;24.67;6.65;;;;;;;13.37;96.59;100375.56;5015866;28;20060;-75
2021/12/12 11:02:11;;;;;;;32.28;5.72;;;;;;;13.37;97.02;100352.09;5035113;28;20025;-75
2021/12/12 11:04:44;;;;;;;22.45;4.97;;;;;;;13.36;98.08;100344.16;5015546;28;20024;-76
2021/12/12 11:07:27;;;;;;;25.80;4.80;;;;;;;13.34;98.65;100346.13;5014097;28;20026;-76
2021/12/12 11:10:17;;;;;;;36.50;7.63;;;;;;;13.43;99.44;100356.91;5014167;28;20041;-76
2021/12/12 11:13:01;;;;;;;28.27;4.90;;;;;;;13.44;99.95;100360.47;5015267;28;20026;-75
2021/12/12 11:15:53;;;;;;;23.55;3.30;;;;;;;13.37;99.98;100359.34;5014863;28;20033;-75
2021/12/12 11:18:39;;;;;;;24.93;6.63;;;;;;;13.34;100.00;100365.06;5016807;28;20065;-75
2021/12/12 11:21:17;;;;;;;29.13;4.07;;;;;;;13.33;100.00;100375.00;5016248;28;20777;-76
2021/12/12 11:23:50;;;;;;;20.10;5.78;;;;;;;13.29;100.00;100370.06;5016063;28;20061;-75
2021/12/12 11:26:21;;;;;;;29.33;5.30;;;;;;;13.41;100.00;100366.16;5013844;28;20021;-75
2021/12/12 11:28:55;;;;;;;30.42;5.32;;;;;;;13.35;100.00;100375.72;5013720;28;20022;-76
2021/12/12 11:31:37;;;;;;;39.33;5.95;;;;;;;13.34;100.00;100403.72;5013745;28;20022;-76
2021/12/12 11:34:05;;;;;;;22.65;5.03;;;;;;;13.27;99.50;100399.06;5015396;28;20037;-77
2021/12/12 11:37:03;;;;;;;38.28;6.13;;;;;;;13.28;99.27;100403.47;5014813;28;20484;-76
2021/12/12 11:39:54;;;;;;;13.82;4.10;;;;;;;13.26;99.08;100402.75;5012485;28;20123;-74
2021/12/12 11:42:26;;;;;;;23.83;4.35;;;;;;;13.29;99.18;100380.84;5012610;28;20041;-75
2021/12/12 11:45:20;;;;;;;16.30;3.92;;;;;;;13.20;98.43;100388.00;5013006;28;20067;-75
2021/12/12 11:47:53;;;;;;;32.45;4.55;;;;;;;13.22;98.57;100395.94;5013251;28;20022;-75
2021/12/12 11:50:46;;;;;;;19.02;4.97;;;;;;;13.22;98.89;100412.16;5013179;28;20033;-76
2021/12/12 11:53:34;;;;;;;19.25;5.47;;;;;;;13.30;98.99;100401.47;5013538;28;20025;-75
2021/12/12 11:56:34;;;;;;;26.70;6.65;;;;;;;13.35;99.11;100388.38;5012617;28;20611;-75
2021/12/12 11:59:07;;;;;;;29.98;4.20;;;;;;;13.35;98.94;100377.56;5028790;28;20100;-76
2021/12/12 12:01:46;;;;;;;33.47;5.32;;;;;;;13.29;98.76;100367.34;5013345;28;20026;-76
2021/12/12 12:04:25;;;;;;;25.30;4.68;;;;;;;13.24;99.02;100366.97;5013010;28;20104;-75